sensor_id;sensor_type;location;lat;lon;timestamp;temperature;humidity
10314;DHT22;5202;49.138;10.090;2023-02-15T00:00:18;0.20;99.90
10314;DHT22;5202;49.138;10.090;2023-02-15T00:02:52;0.20;99.90
10314;DHT22;5202;49.138;10.090;2023-02-15T00:05:20;0.20;99.90
10314;DHT22;5202;49.138;10.090;2023-02-15T00:07:48;0.20;99.90
10314;DHT22;5202;49.138;10.090;2023-02-15T00:10:17;0.10;99.90
10314;DHT22;5202;49.138;10.090;2023-02-15T00:12:45;0.10;99.90
10314;DHT22;5202;49.138;10.090;2023-02-15T00:15:15;0.10;99.90
10314;DHT22;5202;49.138;10.090;2023-02-15T00:17:43;0.10;99.90
10314;DHT22;5202;49.138;10.090;2023-02-15T00:20:11;0.10;99.90
10314;DHT22;5202;49.138;10.090;2023-02-15T00:22:40;0.10;99.90
10314;DHT22;5202;49.138;10.090;2023-02-15T00:25:08;0.00;99.90
10314;DHT22;5202;49.138;10.090;2023-02-15T00:27:36;0.00;99.90
10314;DHT22;5202;49.138;10.090;2023-02-15T00:30:05;0.00;99.90
10314;DHT22;5202;49.138;10.090;2023-02-15T00:32:36;0.00;99.90
10314;DHT22;5202;49.138;10.090;2023-02-15T00:35:05;0.00;99.90
10314;DHT22;5202;49.138;10.090;2023-02-15T00:37:34;0.00;99.90
10314;DHT22;5202;49.138;10.090;2023-02-15T00:40:03;0.00;99.90
10314;DHT22;5202;49.138;10.090;2023-02-15T00:42:32;-0.10;99.90
10314;DHT22;5202;49.138;10.090;2023-02-15T00:45:00;-0.10;99.90
10314;DHT22;5202;49.138;10.090;2023-02-15T00:47:29;-0.10;99.90
10314;DHT22;5202;49.138;10.090;2023-02-15T00:49:58;-0.10;99.90
10314;DHT22;5202;49.138;10.090;2023-02-15T00:52:26;-0.10;99.90
10314;DHT22;5202;49.138;10.090;2023-02-15T00:54:55;0.00;99.90
10314;DHT22;5202;49.138;10.090;2023-02-15T00:57:23;0.00;99.90
10314;DHT22;5202;49.138;10.090;2023-02-15T00:59:51;-0.10;99.90
10314;DHT22;5202;49.138;10.090;2023-02-15T01:02:45;0.00;99.90
10314;DHT22;5202;49.138;10.090;2023-02-15T01:05:15;-0.10;99.90
10314;DHT22;5202;49.138;10.090;2023-02-15T01:07:48;-0.10;99.90
10314;DHT22;5202;49.138;10.090;2023-02-15T01:10:19;-0.10;99.90
10314;DHT22;5202;49.138;10.090;2023-02-15T01:12:47;-0.20;99.90
10314;DHT22;5202;49.138;10.090;2023-02-15T01:15:15;-0.20;99.90
10314;DHT22;5202;49.138;10.090;2023-02-15T01:17:44;-0.30;99.90
10314;DHT22;5202;49.138;10.090;2023-02-15T01:20:24;-0.30;99.90
10314;DHT22;5202;49.138;10.090;2023-02-15T01:22:54;-0.30;99.90
10314;DHT22;5202;49.138;10.090;2023-02-15T01:25:24;-0.40;99.90
10314;DHT22;5202;49.138;10.090;2023-02-15T01:27:54;-0.50;99.90
10314;DHT22;5202;49.138;10.090;2023-02-15T01:30:22;-0.50;99.90
10314;DHT22;5202;49.138;10.090;2023-02-15T01:32:51;-0.50;99.90
10314;DHT22;5202;49.138;10.090;2023-02-15T01:35:19;-0.50;99.90
10314;DHT22;5202;49.138;10.090;2023-02-15T01:37:49;-0.50;99.90
10314;DHT22;5202;49.138;10.090;2023-02-15T01:40:18;-0.50;99.90
10314;DHT22;5202;49.138;10.090;2023-02-15T01:42:50;-0.50;99.90
10314;DHT22;5202;49.138;10.090;2023-02-15T01:45:22;-0.60;99.90
10314;DHT22;5202;49.138;10.090;2023-02-15T01:47:56;-0.60;99.90
10314;DHT22;5202;49.138;10.090;2023-02-15T01:50:30;-0.60;99.90
10314;DHT22;5202;49.138;10.090;2023-02-15T01:53:06;-0.60;99.90
10314;DHT22;5202;49.138;10.090;2023-02-15T01:55:39;-0.60;99.90
10314;DHT22;5202;49.138;10.090;2023-02-15T01:58:09;-0.60;99.90
10314;DHT22;5202;49.138;10.090;2023-02-15T02:00:38;-0.60;99.90
10314;DHT22;5202;49.138;10.090;2023-02-15T02:03:06;-0.60;99.90
10314;DHT22;5202;49.138;10.090;2023-02-15T02:05:35;-0.60;99.90
10314;DHT22;5202;49.138;10.090;2023-02-15T02:08:05;-0.60;99.90
10314;DHT22;5202;49.138;10.090;2023-02-15T02:10:36;-0.50;99.90
10314;DHT22;5202;49.138;10.090;2023-02-15T02:13:05;-0.60;99.90
10314;DHT22;5202;49.138;10.090;2023-02-15T02:15:41;-0.50;99.90
10314;DHT22;5202;49.138;10.090;2023-02-15T02:18:28;-0.50;99.90
10314;DHT22;5202;49.138;10.090;2023-02-15T02:21:51;-0.50;99.90
10314;DHT22;5202;49.138;10.090;2023-02-15T02:25:04;-0.40;99.90
10314;DHT22;5202;49.138;10.090;2023-02-15T02:27:48;-0.40;99.90
10314;DHT22;5202;49.138;10.090;2023-02-15T02:30:49;-0.30;99.90
10314;DHT22;5202;49.138;10.090;2023-02-15T02:33:46;-0.40;99.90
10314;DHT22;5202;49.138;10.090;2023-02-15T02:36:23;-0.40;99.90
10314;DHT22;5202;49.138;10.090;2023-02-15T02:39:07;-0.60;99.90
10314;DHT22;5202;49.138;10.090;2023-02-15T02:41:49;-0.60;99.90
10314;DHT22;5202;49.138;10.090;2023-02-15T02:44:23;-0.60;99.90
10314;DHT22;5202;49.138;10.090;2023-02-15T02:46:58;-0.50;99.90
10314;DHT22;5202;49.138;10.090;2023-02-15T02:49:34;-0.50;99.90
10314;DHT22;5202;49.138;10.090;2023-02-15T02:52:06;-0.40;99.90
10314;DHT22;5202;49.138;10.090;2023-02-15T02:54:56;-0.40;99.90
10314;DHT22;5202;49.138;10.090;2023-02-15T02:57:27;-0.30;99.90
10314;DHT22;5202;49.138;10.090;2023-02-15T02:59:58;-0.30;99.90
10314;DHT22;5202;49.138;10.090;2023-02-15T03:02:32;-0.30;99.90
10314;DHT22;5202;49.138;10.090;2023-02-15T03:05:07;-0.30;99.90
10314;DHT22;5202;49.138;10.090;2023-02-15T03:08:04;-0.20;99.90
10314;DHT22;5202;49.138;10.090;2023-02-15T03:10:37;-0.20;99.90
10314;DHT22;5202;49.138;10.090;2023-02-15T03:13:07;-0.20;99.90
10314;DHT22;5202;49.138;10.090;2023-02-15T03:15:38;-0.20;99.90
10314;DHT22;5202;49.138;10.090;2023-02-15T03:18:28;-0.20;99.90
10314;DHT22;5202;49.138;10.090;2023-02-15T03:21:01;-0.20;99.90
10314;DHT22;5202;49.138;10.090;2023-02-15T03:23:32;-0.30;99.90
10314;DHT22;5202;49.138;10.090;2023-02-15T03:26:05;-0.30;99.90
10314;DHT22;5202;49.138;10.090;2023-02-15T03:28:40;-0.40;99.90
10314;DHT22;5202;49.138;10.090;2023-02-15T03:31:12;-0.40;99.90
10314;DHT22;5202;49.138;10.090;2023-02-15T03:33:44;-0.50;99.90
10314;DHT22;5202;49.138;10.090;2023-02-15T03:36:22;-0.50;99.90
10314;DHT22;5202;49.138;10.090;2023-02-15T03:38:58;-0.40;99.90
10314;DHT22;5202;49.138;10.090;2023-02-15T03:41:42;-0.40;99.90
10314;DHT22;5202;49.138;10.090;2023-02-15T03:44:26;-0.30;99.90
10314;DHT22;5202;49.138;10.090;2023-02-15T03:47:00;-0.30;99.90
10314;DHT22;5202;49.138;10.090;2023-02-15T03:49:38;-0.30;99.90
10314;DHT22;5202;49.138;10.090;2023-02-15T03:52:11;-0.30;99.90
10314;DHT22;5202;49.138;10.090;2023-02-15T03:54:40;-0.30;99.90
10314;DHT22;5202;49.138;10.090;2023-02-15T03:57:18;-0.30;99.90
10314;DHT22;5202;49.138;10.090;2023-02-15T04:00:12;-0.30;99.90
10314;DHT22;5202;49.138;10.090;2023-02-15T04:03:21;-0.30;99.90
10314;DHT22;5202;49.138;10.090;2023-02-15T04:05:51;-0.30;99.90
10314;DHT22;5202;49.138;10.090;2023-02-15T04:08:21;-0.30;99.90
10314;DHT22;5202;49.138;10.090;2023-02-15T04:11:09;-0.30;99.90
10314;DHT22;5202;49.138;10.090;2023-02-15T04:13:37;-0.30;99.90
10314;DHT22;5202;49.138;10.090;2023-02-15T04:16:05;-0.30;99.90
10314;DHT22;5202;49.138;10.090;2023-02-15T04:18:39;-0.30;99.90
10314;DHT22;5202;49.138;10.090;2023-02-15T04:21:27;-0.30;99.90
10314;DHT22;5202;49.138;10.090;2023-02-15T04:24:15;-0.30;99.90
10314;DHT22;5202;49.138;10.090;2023-02-15T04:27:02;-0.30;99.90
10314;DHT22;5202;49.138;10.090;2023-02-15T04:29:31;-0.40;99.90
10314;DHT22;5202;49.138;10.090;2023-02-15T04:32:00;-0.40;99.90
10314;DHT22;5202;49.138;10.090;2023-02-15T04:34:29;-0.40;99.90
10314;DHT22;5202;49.138;10.090;2023-02-15T04:36:57;-0.40;99.90
10314;DHT22;5202;49.138;10.090;2023-02-15T04:39:27;-0.50;99.90
10314;DHT22;5202;49.138;10.090;2023-02-15T04:41:55;-0.50;99.90
10314;DHT22;5202;49.138;10.090;2023-02-15T04:44:23;-0.50;99.90
10314;DHT22;5202;49.138;10.090;2023-02-15T04:46:51;-0.60;99.90
10314;DHT22;5202;49.138;10.090;2023-02-15T04:49:20;-0.60;99.90
10314;DHT22;5202;49.138;10.090;2023-02-15T04:51:48;-0.60;99.90
10314;DHT22;5202;49.138;10.090;2023-02-15T04:54:16;-0.70;99.90
10314;DHT22;5202;49.138;10.090;2023-02-15T04:56:46;-0.70;99.90
10314;DHT22;5202;49.138;10.090;2023-02-15T04:59:14;-0.70;99.90
10314;DHT22;5202;49.138;10.090;2023-02-15T05:01:44;-0.70;99.90
10314;DHT22;5202;49.138;10.090;2023-02-15T05:04:13;-0.80;99.90
10314;DHT22;5202;49.138;10.090;2023-02-15T05:06:51;-0.80;99.90
10314;DHT22;5202;49.138;10.090;2023-02-15T05:09:20;-0.80;99.90
10314;DHT22;5202;49.138;10.090;2023-02-15T05:11:49;-0.80;99.90
10314;DHT22;5202;49.138;10.090;2023-02-15T05:14:18;-1.00;99.90
10314;DHT22;5202;49.138;10.090;2023-02-15T05:16:46;-1.10;99.90
10314;DHT22;5202;49.138;10.090;2023-02-15T05:19:14;-1.20;99.90
10314;DHT22;5202;49.138;10.090;2023-02-15T05:21:43;-1.30;99.90
10314;DHT22;5202;49.138;10.090;2023-02-15T05:24:12;-1.30;99.90
10314;DHT22;5202;49.138;10.090;2023-02-15T05:27:01;-1.40;99.90
10314;DHT22;5202;49.138;10.090;2023-02-15T05:29:47;-1.40;99.90
10314;DHT22;5202;49.138;10.090;2023-02-15T05:32:15;-1.40;99.90
10314;DHT22;5202;49.138;10.090;2023-02-15T05:34:44;-1.30;99.90
10314;DHT22;5202;49.138;10.090;2023-02-15T05:37:12;-1.30;99.90
10314;DHT22;5202;49.138;10.090;2023-02-15T05:39:41;-1.30;99.90
10314;DHT22;5202;49.138;10.090;2023-02-15T05:42:10;-1.30;99.90
10314;DHT22;5202;49.138;10.090;2023-02-15T05:44:39;-1.20;99.90
10314;DHT22;5202;49.138;10.090;2023-02-15T05:47:07;-1.20;99.90
10314;DHT22;5202;49.138;10.090;2023-02-15T05:49:35;-1.20;99.90
10314;DHT22;5202;49.138;10.090;2023-02-15T05:52:04;-1.20;99.90
10314;DHT22;5202;49.138;10.090;2023-02-15T05:54:32;-1.20;99.90
10314;DHT22;5202;49.138;10.090;2023-02-15T05:57:00;-1.10;99.90
10314;DHT22;5202;49.138;10.090;2023-02-15T05:59:30;-1.10;99.90
10314;DHT22;5202;49.138;10.090;2023-02-15T06:01:58;-1.10;99.90
10314;DHT22;5202;49.138;10.090;2023-02-15T06:04:26;-1.10;99.90
10314;DHT22;5202;49.138;10.090;2023-02-15T06:06:55;-1.10;99.90
10314;DHT22;5202;49.138;10.090;2023-02-15T06:09:23;-1.20;99.90
10314;DHT22;5202;49.138;10.090;2023-02-15T06:11:51;-1.20;99.90
10314;DHT22;5202;49.138;10.090;2023-02-15T06:14:19;-1.20;99.90
10314;DHT22;5202;49.138;10.090;2023-02-15T06:16:49;-1.30;99.90
10314;DHT22;5202;49.138;10.090;2023-02-15T06:19:17;-1.30;99.90
10314;DHT22;5202;49.138;10.090;2023-02-15T06:21:45;-1.30;99.90
10314;DHT22;5202;49.138;10.090;2023-02-15T06:24:14;-1.30;99.90
10314;DHT22;5202;49.138;10.090;2023-02-15T06:26:42;-1.30;99.90
10314;DHT22;5202;49.138;10.090;2023-02-15T06:29:10;-1.30;99.90
10314;DHT22;5202;49.138;10.090;2023-02-15T06:31:38;-1.40;99.90
10314;DHT22;5202;49.138;10.090;2023-02-15T06:34:08;-1.40;99.90
10314;DHT22;5202;49.138;10.090;2023-02-15T06:36:36;-1.40;99.90
10314;DHT22;5202;49.138;10.090;2023-02-15T06:39:05;-1.40;99.90
10314;DHT22;5202;49.138;10.090;2023-02-15T06:41:33;-1.50;99.90
10314;DHT22;5202;49.138;10.090;2023-02-15T06:44:01;-1.30;99.90
10314;DHT22;5202;49.138;10.090;2023-02-15T06:46:29;-1.30;99.90
10314;DHT22;5202;49.138;10.090;2023-02-15T06:48:57;-1.30;99.90
10314;DHT22;5202;49.138;10.090;2023-02-15T06:51:27;-1.30;99.90
10314;DHT22;5202;49.138;10.090;2023-02-15T06:53:55;-1.40;99.90
10314;DHT22;5202;49.138;10.090;2023-02-15T06:56:24;-1.40;99.90
10314;DHT22;5202;49.138;10.090;2023-02-15T06:58:52;-1.30;99.90
10314;DHT22;5202;49.138;10.090;2023-02-15T07:01:21;-1.30;99.90
10314;DHT22;5202;49.138;10.090;2023-02-15T07:03:49;-1.30;99.90
10314;DHT22;5202;49.138;10.090;2023-02-15T07:06:33;-1.20;99.90
10314;DHT22;5202;49.138;10.090;2023-02-15T07:09:02;-1.20;99.90
10314;DHT22;5202;49.138;10.090;2023-02-15T07:11:31;-1.10;99.90
10314;DHT22;5202;49.138;10.090;2023-02-15T07:14:16;-1.10;99.90
10314;DHT22;5202;49.138;10.090;2023-02-15T07:16:45;-1.10;99.90
10314;DHT22;5202;49.138;10.090;2023-02-15T07:19:13;-1.00;99.90
10314;DHT22;5202;49.138;10.090;2023-02-15T07:21:42;-1.00;99.90
10314;DHT22;5202;49.138;10.090;2023-02-15T07:24:12;-0.90;99.90
10314;DHT22;5202;49.138;10.090;2023-02-15T07:26:40;-0.90;99.90
10314;DHT22;5202;49.138;10.090;2023-02-15T07:29:08;-0.90;99.90
10314;DHT22;5202;49.138;10.090;2023-02-15T07:31:37;-0.90;99.90
10314;DHT22;5202;49.138;10.090;2023-02-15T07:34:05;-0.80;99.90
10314;DHT22;5202;49.138;10.090;2023-02-15T07:36:34;-0.70;99.90
10314;DHT22;5202;49.138;10.090;2023-02-15T07:39:03;-0.70;99.90
10314;DHT22;5202;49.138;10.090;2023-02-15T07:41:32;-0.60;99.90
10314;DHT22;5202;49.138;10.090;2023-02-15T07:44:00;-0.50;99.90
10314;DHT22;5202;49.138;10.090;2023-02-15T07:46:28;-0.40;99.90
10314;DHT22;5202;49.138;10.090;2023-02-15T07:48:57;-0.30;99.90
10314;DHT22;5202;49.138;10.090;2023-02-15T07:51:25;-0.40;99.90
10314;DHT22;5202;49.138;10.090;2023-02-15T07:53:53;-0.30;99.90
10314;DHT22;5202;49.138;10.090;2023-02-15T07:56:23;-0.20;99.90
10314;DHT22;5202;49.138;10.090;2023-02-15T07:58:51;-0.10;99.90
10314;DHT22;5202;49.138;10.090;2023-02-15T08:01:22;0.00;99.90
10314;DHT22;5202;49.138;10.090;2023-02-15T08:03:51;0.10;99.90
10314;DHT22;5202;49.138;10.090;2023-02-15T08:06:21;0.10;99.90
10314;DHT22;5202;49.138;10.090;2023-02-15T08:08:51;0.10;99.90
10314;DHT22;5202;49.138;10.090;2023-02-15T08:11:21;0.10;99.90
10314;DHT22;5202;49.138;10.090;2023-02-15T08:13:57;0.20;99.90
10314;DHT22;5202;49.138;10.090;2023-02-15T08:16:29;0.20;99.90
10314;DHT22;5202;49.138;10.090;2023-02-15T08:19:00;0.40;99.90
10314;DHT22;5202;49.138;10.090;2023-02-15T08:21:30;0.50;99.90
10314;DHT22;5202;49.138;10.090;2023-02-15T08:23:59;0.60;99.90
10314;DHT22;5202;49.138;10.090;2023-02-15T08:26:29;0.60;99.90
10314;DHT22;5202;49.138;10.090;2023-02-15T08:28:58;0.70;99.90
10314;DHT22;5202;49.138;10.090;2023-02-15T08:31:27;0.70;99.90
10314;DHT22;5202;49.138;10.090;2023-02-15T08:33:56;0.80;99.90
10314;DHT22;5202;49.138;10.090;2023-02-15T08:36:27;0.90;99.90
10314;DHT22;5202;49.138;10.090;2023-02-15T08:39:00;1.00;99.90
10314;DHT22;5202;49.138;10.090;2023-02-15T08:41:32;1.10;99.90
10314;DHT22;5202;49.138;10.090;2023-02-15T08:44:04;1.30;99.90
10314;DHT22;5202;49.138;10.090;2023-02-15T08:46:35;1.40;99.90
10314;DHT22;5202;49.138;10.090;2023-02-15T08:49:05;1.40;99.90
10314;DHT22;5202;49.138;10.090;2023-02-15T08:51:35;1.50;99.90
10314;DHT22;5202;49.138;10.090;2023-02-15T08:54:06;1.60;99.90
10314;DHT22;5202;49.138;10.090;2023-02-15T08:56:38;1.70;99.90
10314;DHT22;5202;49.138;10.090;2023-02-15T08:59:12;1.60;99.90
10314;DHT22;5202;49.138;10.090;2023-02-15T09:01:42;1.70;99.90
10314;DHT22;5202;49.138;10.090;2023-02-15T09:04:10;1.70;99.90
10314;DHT22;5202;49.138;10.090;2023-02-15T09:06:41;1.80;99.90
10314;DHT22;5202;49.138;10.090;2023-02-15T09:09:11;1.90;99.90
10314;DHT22;5202;49.138;10.090;2023-02-15T09:11:42;2.00;99.90
10314;DHT22;5202;49.138;10.090;2023-02-15T09:14:13;2.10;99.90
10314;DHT22;5202;49.138;10.090;2023-02-15T09:16:44;2.10;99.90
10314;DHT22;5202;49.138;10.090;2023-02-15T09:19:15;2.20;99.90
10314;DHT22;5202;49.138;10.090;2023-02-15T09:21:44;2.30;99.90
10314;DHT22;5202;49.138;10.090;2023-02-15T09:24:14;2.30;99.90
10314;DHT22;5202;49.138;10.090;2023-02-15T09:26:45;2.40;99.90
10314;DHT22;5202;49.138;10.090;2023-02-15T09:29:15;2.50;99.90
10314;DHT22;5202;49.138;10.090;2023-02-15T09:31:46;2.60;99.90
10314;DHT22;5202;49.138;10.090;2023-02-15T09:34:17;2.70;99.90
10314;DHT22;5202;49.138;10.090;2023-02-15T09:36:47;2.90;99.90
10314;DHT22;5202;49.138;10.090;2023-02-15T09:39:16;3.00;99.90
10314;DHT22;5202;49.138;10.090;2023-02-15T09:45:13;3.30;99.90
10314;DHT22;5202;49.138;10.090;2023-02-15T09:50:57;3.60;99.90
10314;DHT22;5202;49.138;10.090;2023-02-15T09:53:45;3.70;99.90
10314;DHT22;5202;49.138;10.090;2023-02-15T09:56:30;3.80;99.90
10314;DHT22;5202;49.138;10.090;2023-02-15T09:59:10;4.00;99.90
10314;DHT22;5202;49.138;10.090;2023-02-15T10:01:48;4.10;99.90
10314;DHT22;5202;49.138;10.090;2023-02-15T10:04:39;4.30;99.90
10314;DHT22;5202;49.138;10.090;2023-02-15T10:07:22;4.40;99.90
10314;DHT22;5202;49.138;10.090;2023-02-15T10:10:09;4.50;99.90
10314;DHT22;5202;49.138;10.090;2023-02-15T10:12:54;4.60;99.90
10314;DHT22;5202;49.138;10.090;2023-02-15T10:15:36;4.80;99.90
10314;DHT22;5202;49.138;10.090;2023-02-15T10:18:32;4.90;99.90
10314;DHT22;5202;49.138;10.090;2023-02-15T10:21:19;5.10;99.90
10314;DHT22;5202;49.138;10.090;2023-02-15T10:26:52;5.30;99.90
10314;DHT22;5202;49.138;10.090;2023-02-15T10:29:30;5.40;99.90
10314;DHT22;5202;49.138;10.090;2023-02-15T10:32:13;5.50;99.90
10314;DHT22;5202;49.138;10.090;2023-02-15T10:34:51;5.60;99.90
10314;DHT22;5202;49.138;10.090;2023-02-15T10:40:25;5.80;99.90
10314;DHT22;5202;49.138;10.090;2023-02-15T10:43:09;5.90;99.90
10314;DHT22;5202;49.138;10.090;2023-02-15T10:45:54;6.00;99.90
10314;DHT22;5202;49.138;10.090;2023-02-15T10:48:39;6.10;99.90
10314;DHT22;5202;49.138;10.090;2023-02-15T10:51:26;6.20;99.90
10314;DHT22;5202;49.138;10.090;2023-02-15T10:54:12;6.30;99.90
10314;DHT22;5202;49.138;10.090;2023-02-15T10:56:53;6.50;99.90
10314;DHT22;5202;49.138;10.090;2023-02-15T10:59:41;6.60;99.90
10314;DHT22;5202;49.138;10.090;2023-02-15T11:02:52;6.70;99.90
10314;DHT22;5202;49.138;10.090;2023-02-15T11:05:37;6.80;99.90
10314;DHT22;5202;49.138;10.090;2023-02-15T11:08:10;6.90;99.90
10314;DHT22;5202;49.138;10.090;2023-02-15T11:10:42;7.00;99.90
10314;DHT22;5202;49.138;10.090;2023-02-15T11:13:14;7.00;99.90
10314;DHT22;5202;49.138;10.090;2023-02-15T11:15:47;7.10;99.90
10314;DHT22;5202;49.138;10.090;2023-02-15T11:18:24;7.10;99.90
10314;DHT22;5202;49.138;10.090;2023-02-15T11:20:57;7.20;99.90
10314;DHT22;5202;49.138;10.090;2023-02-15T11:23:30;7.40;99.90
10314;DHT22;5202;49.138;10.090;2023-02-15T11:26:02;7.50;99.60
10314;DHT22;5202;49.138;10.090;2023-02-15T11:28:34;7.60;99.80
10314;DHT22;5202;49.138;10.090;2023-02-15T11:31:13;7.70;98.70
10314;DHT22;5202;49.138;10.090;2023-02-15T11:33:48;7.80;99.30
10314;DHT22;5202;49.138;10.090;2023-02-15T11:36:22;7.90;99.00
10314;DHT22;5202;49.138;10.090;2023-02-15T11:38:58;8.00;98.70
10314;DHT22;5202;49.138;10.090;2023-02-15T11:41:33;8.10;98.90
10314;DHT22;5202;49.138;10.090;2023-02-15T11:44:08;8.40;98.60
10314;DHT22;5202;49.138;10.090;2023-02-15T11:46:40;8.40;97.70
10314;DHT22;5202;49.138;10.090;2023-02-15T11:49:19;8.50;97.70
10314;DHT22;5202;49.138;10.090;2023-02-15T11:51:52;8.70;97.50
10314;DHT22;5202;49.138;10.090;2023-02-15T11:54:26;8.70;97.20
10314;DHT22;5202;49.138;10.090;2023-02-15T11:56:59;8.70;96.90
10314;DHT22;5202;49.138;10.090;2023-02-15T11:59:32;8.90;97.40
10314;DHT22;5202;49.138;10.090;2023-02-15T12:02:16;9.10;96.80
10314;DHT22;5202;49.138;10.090;2023-02-15T12:04:49;9.20;97.10
10314;DHT22;5202;49.138;10.090;2023-02-15T12:07:24;9.40;96.90
10314;DHT22;5202;49.138;10.090;2023-02-15T12:10:00;9.50;96.60
10314;DHT22;5202;49.138;10.090;2023-02-15T12:12:35;9.70;96.40
10314;DHT22;5202;49.138;10.090;2023-02-15T12:15:05;9.80;96.30
10314;DHT22;5202;49.138;10.090;2023-02-15T12:17:38;9.90;96.50
10314;DHT22;5202;49.138;10.090;2023-02-15T12:20:21;10.10;95.20
10314;DHT22;5202;49.138;10.090;2023-02-15T12:22:58;10.20;95.20
10314;DHT22;5202;49.138;10.090;2023-02-15T12:25:35;10.40;94.70
10314;DHT22;5202;49.138;10.090;2023-02-15T12:28:25;10.40;94.90
10314;DHT22;5202;49.138;10.090;2023-02-15T12:30:55;10.50;94.70
10314;DHT22;5202;49.138;10.090;2023-02-15T12:33:27;10.60;94.40
10314;DHT22;5202;49.138;10.090;2023-02-15T12:36:00;10.70;94.00
10314;DHT22;5202;49.138;10.090;2023-02-15T12:38:36;10.80;93.40
10314;DHT22;5202;49.138;10.090;2023-02-15T12:41:21;10.90;93.70
10314;DHT22;5202;49.138;10.090;2023-02-15T12:44:04;11.00;94.10
10314;DHT22;5202;49.138;10.090;2023-02-15T12:46:40;11.20;93.30
10314;DHT22;5202;49.138;10.090;2023-02-15T12:49:17;11.30;93.40
10314;DHT22;5202;49.138;10.090;2023-02-15T12:51:50;11.40;92.90
10314;DHT22;5202;49.138;10.090;2023-02-15T12:54:33;11.60;92.90
10314;DHT22;5202;49.138;10.090;2023-02-15T12:57:15;11.90;92.20
10314;DHT22;5202;49.138;10.090;2023-02-15T12:59:50;12.00;91.80
10314;DHT22;5202;49.138;10.090;2023-02-15T13:02:35;12.20;91.50
10314;DHT22;5202;49.138;10.090;2023-02-15T13:05:33;12.40;91.70
10314;DHT22;5202;49.138;10.090;2023-02-15T13:08:12;12.60;91.10
10314;DHT22;5202;49.138;10.090;2023-02-15T13:10:54;12.80;91.20
10314;DHT22;5202;49.138;10.090;2023-02-15T13:13:26;13.00;91.10
10314;DHT22;5202;49.138;10.090;2023-02-15T13:15:59;13.00;91.10
10314;DHT22;5202;49.138;10.090;2023-02-15T13:18:31;13.30;90.60
10314;DHT22;5202;49.138;10.090;2023-02-15T13:21:16;13.30;91.80
10314;DHT22;5202;49.138;10.090;2023-02-15T13:23:49;13.20;90.20
10314;DHT22;5202;49.138;10.090;2023-02-15T13:26:22;13.10;90.00
10314;DHT22;5202;49.138;10.090;2023-02-15T13:28:55;13.30;90.30
10314;DHT22;5202;49.138;10.090;2023-02-15T13:31:27;13.70;89.80
10314;DHT22;5202;49.138;10.090;2023-02-15T13:34:03;14.10;88.30
10314;DHT22;5202;49.138;10.090;2023-02-15T13:36:44;14.40;87.00
10314;DHT22;5202;49.138;10.090;2023-02-15T13:39:25;14.60;86.50
10314;DHT22;5202;49.138;10.090;2023-02-15T13:42:01;14.80;85.20
10314;DHT22;5202;49.138;10.090;2023-02-15T13:44:51;15.10;82.70
10314;DHT22;5202;49.138;10.090;2023-02-15T13:47:34;15.30;82.80
10314;DHT22;5202;49.138;10.090;2023-02-15T13:50:21;15.60;80.70
10314;DHT22;5202;49.138;10.090;2023-02-15T13:53:24;15.70;80.20
10314;DHT22;5202;49.138;10.090;2023-02-15T13:56:06;15.60;80.10
10314;DHT22;5202;49.138;10.090;2023-02-15T13:59:12;15.90;79.10
10314;DHT22;5202;49.138;10.090;2023-02-15T14:01:55;16.10;78.80
10314;DHT22;5202;49.138;10.090;2023-02-15T14:04:40;16.30;78.80
10314;DHT22;5202;49.138;10.090;2023-02-15T14:07:29;16.50;78.40
10314;DHT22;5202;49.138;10.090;2023-02-15T14:10:15;16.70;77.80
10314;DHT22;5202;49.138;10.090;2023-02-15T14:13:03;16.80;76.40
10314;DHT22;5202;49.138;10.090;2023-02-15T14:15:47;17.00;77.80
10314;DHT22;5202;49.138;10.090;2023-02-15T14:18:23;17.10;76.60
10314;DHT22;5202;49.138;10.090;2023-02-15T14:21:03;17.20;76.30
10314;DHT22;5202;49.138;10.090;2023-02-15T14:23:42;17.20;75.60
10314;DHT22;5202;49.138;10.090;2023-02-15T14:26:21;17.20;76.10
10314;DHT22;5202;49.138;10.090;2023-02-15T14:29:01;17.20;75.90
10314;DHT22;5202;49.138;10.090;2023-02-15T14:31:40;17.20;76.10
10314;DHT22;5202;49.138;10.090;2023-02-15T14:34:19;17.10;75.50
10314;DHT22;5202;49.138;10.090;2023-02-15T14:36:51;17.10;75.80
10314;DHT22;5202;49.138;10.090;2023-02-15T14:39:29;17.20;75.10
10314;DHT22;5202;49.138;10.090;2023-02-15T14:42:23;17.10;74.60
10314;DHT22;5202;49.138;10.090;2023-02-15T14:44:58;17.00;74.10
10314;DHT22;5202;49.138;10.090;2023-02-15T14:47:34;16.90;74.60
10314;DHT22;5202;49.138;10.090;2023-02-15T14:50:44;16.80;75.00
10314;DHT22;5202;49.138;10.090;2023-02-15T14:53:33;16.70;75.10
10314;DHT22;5202;49.138;10.090;2023-02-15T14:56:22;16.60;75.40
10314;DHT22;5202;49.138;10.090;2023-02-15T14:59:13;16.50;75.20
10314;DHT22;5202;49.138;10.090;2023-02-15T15:01:52;16.40;75.10
10314;DHT22;5202;49.138;10.090;2023-02-15T15:04:34;16.40;75.90
10314;DHT22;5202;49.138;10.090;2023-02-15T15:07:09;16.40;75.30
10314;DHT22;5202;49.138;10.090;2023-02-15T15:09:43;16.30;75.00
10314;DHT22;5202;49.138;10.090;2023-02-15T15:15:06;16.40;75.20
10314;DHT22;5202;49.138;10.090;2023-02-15T15:18:00;16.30;75.20
10314;DHT22;5202;49.138;10.090;2023-02-15T15:20:43;16.20;74.90
10314;DHT22;5202;49.138;10.090;2023-02-15T15:23:41;16.20;74.80
10314;DHT22;5202;49.138;10.090;2023-02-15T15:26:30;16.10;74.70
10314;DHT22;5202;49.138;10.090;2023-02-15T15:29:04;16.10;74.90
10314;DHT22;5202;49.138;10.090;2023-02-15T15:31:43;16.20;74.80
10314;DHT22;5202;49.138;10.090;2023-02-15T15:34:21;16.20;74.50
10314;DHT22;5202;49.138;10.090;2023-02-15T15:37:29;16.20;74.20
10314;DHT22;5202;49.138;10.090;2023-02-15T15:44:17;16.20;74.20
10314;DHT22;5202;49.138;10.090;2023-02-15T15:47:10;16.10;74.40
10314;DHT22;5202;49.138;10.090;2023-02-15T15:49:45;16.10;74.50
10314;DHT22;5202;49.138;10.090;2023-02-15T15:52:17;16.10;74.50
10314;DHT22;5202;49.138;10.090;2023-02-15T15:54:49;16.10;74.30
10314;DHT22;5202;49.138;10.090;2023-02-15T15:57:25;16.00;74.50
10314;DHT22;5202;49.138;10.090;2023-02-15T15:59:56;15.80;74.10
10314;DHT22;5202;49.138;10.090;2023-02-15T16:02:27;15.70;75.30
10314;DHT22;5202;49.138;10.090;2023-02-15T16:05:06;15.60;74.40
10314;DHT22;5202;49.138;10.090;2023-02-15T16:07:40;15.20;74.90
10314;DHT22;5202;49.138;10.090;2023-02-15T16:10:20;14.90;75.60
10314;DHT22;5202;49.138;10.090;2023-02-15T16:12:51;14.50;76.50
10314;DHT22;5202;49.138;10.090;2023-02-15T16:15:21;14.00;77.80
10314;DHT22;5202;49.138;10.090;2023-02-15T16:17:54;13.50;77.90
10314;DHT22;5202;49.138;10.090;2023-02-15T16:20:24;12.90;78.50
10314;DHT22;5202;49.138;10.090;2023-02-15T16:23:08;12.30;80.60
10314;DHT22;5202;49.138;10.090;2023-02-15T16:25:49;11.70;81.90
10314;DHT22;5202;49.138;10.090;2023-02-15T16:28:22;11.20;83.60
10314;DHT22;5202;49.138;10.090;2023-02-15T16:31:04;10.70;84.90
10314;DHT22;5202;49.138;10.090;2023-02-15T16:33:35;10.30;86.10
10314;DHT22;5202;49.138;10.090;2023-02-15T16:36:06;10.00;88.00
10314;DHT22;5202;49.138;10.090;2023-02-15T16:39:18;9.60;89.80
10314;DHT22;5202;49.138;10.090;2023-02-15T16:41:47;9.30;90.60
10314;DHT22;5202;49.138;10.090;2023-02-15T16:44:18;9.10;91.20